Time;durP1;ratioP1;P1;durP2;ratioP2;P2;SDS_P1;SDS_P2;PMS_P1;PMS_P2;Temp;Humidity;BMP_temperature;BMP_pressure;BME280_temperature;BME280_humidity;BME280_pressure;Samples;Min_cycle;Max_cycle;Signal;HPM_P1;HPM_P2
2021/01/07 00:01:41;;;;;;;26.25;13.85;;;1.60;99.90;;;;;;5052949;28;20025;-80
2021/01/07 00:04:08;;;;;;;26.48;14.20;;;1.70;99.90;;;;;;5051233;28;20021;-80
2021/01/07 00:06:34;;;;;;;26.77;13.88;;;1.70;99.90;;;;;;5051906;28;20029;-80
2021/01/07 00:09:00;;;;;;;24.42;13.27;;;1.70;99.90;;;;;;5051193;28;20029;-81
2021/01/07 00:11:26;;;;;;;22.45;12.88;;;1.70;99.90;;;;;;5051750;28;20036;-82
2021/01/07 00:13:52;;;;;;;28.75;13.38;;;1.70;99.90;;;;;;5053572;28;20594;-83
2021/01/07 00:16:18;;;;;;;27.65;14.57;;;1.70;99.90;;;;;;5053086;28;20021;-81
2021/01/07 00:18:43;;;;;;;27.80;13.85;;;1.70;99.90;;;;;;5050681;28;20029;-81
2021/01/07 00:21:09;;;;;;;34.90;14.57;;;1.80;99.90;;;;;;5051426;28;20064;-81
2021/01/07 00:23:34;;;;;;;30.10;14.90;;;1.70;99.90;;;;;;5050892;28;20037;-81
2021/01/07 00:26:00;;;;;;;24.95;13.57;;;1.70;99.90;;;;;;5050687;28;20035;-81
2021/01/07 00:28:25;;;;;;;25.15;14.05;;;1.80;99.90;;;;;;5054088;28;20021;-81
2021/01/07 00:30:51;;;;;;;28.88;14.73;;;1.80;99.90;;;;;;5050520;28;20021;-81
2021/01/07 00:33:18;;;;;;;26.73;14.35;;;1.70;99.90;;;;;;5052226;28;20059;-81
2021/01/07 00:35:44;;;;;;;24.58;14.13;;;1.80;99.90;;;;;;5050741;28;20029;-81
2021/01/07 00:38:10;;;;;;;28.73;14.88;;;1.80;99.90;;;;;;5052179;28;20033;-81
2021/01/07 00:40:36;;;;;;;27.77;13.68;;;1.80;99.90;;;;;;5050638;28;20071;-81
2021/01/07 00:43:03;;;;;;;22.48;12.40;;;1.80;99.90;;;;;;5050875;28;20591;-81
2021/01/07 00:45:30;;;;;;;25.42;13.68;;;1.80;99.90;;;;;;5050770;28;20071;-81
2021/01/07 00:47:56;;;;;;;24.08;12.68;;;1.80;99.90;;;;;;5053539;28;20045;-81
2021/01/07 00:50:22;;;;;;;22.10;11.88;;;1.80;99.90;;;;;;5050633;28;20032;-81
2021/01/07 00:52:48;;;;;;;23.50;12.95;;;1.80;99.90;;;;;;5050139;28;20094;-81
2021/01/07 00:55:16;;;;;;;25.63;13.43;;;1.90;99.90;;;;;;5051647;28;20422;-81
2021/01/07 00:57:42;;;;;;;24.42;11.85;;;1.80;99.90;;;;;;5050521;28;20454;-81
2021/01/07 01:00:11;;;;;;;27.33;12.75;;;1.80;99.90;;;;;;5049852;28;20087;-81
2021/01/07 01:02:37;;;;;;;19.45;11.55;;;1.80;99.90;;;;;;5050459;28;20025;-81
2021/01/07 01:05:04;;;;;;;20.02;11.55;;;1.80;99.90;;;;;;5049926;28;20071;-82
2021/01/07 01:07:29;;;;;;;21.33;11.80;;;1.80;99.90;;;;;;5051358;28;20040;-81
2021/01/07 01:09:55;;;;;;;22.67;12.75;;;1.90;99.90;;;;;;5050066;28;20033;-81
2021/01/07 01:12:21;;;;;;;19.00;11.23;;;1.90;99.90;;;;;;5050774;28;20120;-82
2021/01/07 01:14:47;;;;;;;23.70;10.95;;;1.90;99.90;;;;;;5050126;28;20025;-82
2021/01/07 01:17:13;;;;;;;22.08;12.50;;;1.80;99.90;;;;;;5050394;28;20398;-82
2021/01/07 01:19:38;;;;;;;24.35;12.65;;;1.90;99.90;;;;;;5050148;28;20025;-81
2021/01/07 01:22:04;;;;;;;20.05;11.48;;;1.90;99.90;;;;;;5050124;28;20393;-81
2021/01/07 01:24:30;;;;;;;19.65;12.07;;;1.80;99.90;;;;;;5049863;28;20036;-81
2021/01/07 01:26:57;;;;;;;22.70;13.07;;;1.90;99.90;;;;;;5053074;28;20037;-81
2021/01/07 01:29:24;;;;;;;21.23;12.15;;;1.90;99.90;;;;;;5050893;28;20025;-81
2021/01/07 01:31:49;;;;;;;23.50;12.90;;;1.90;99.90;;;;;;5051245;28;20061;-81
2021/01/07 01:34:16;;;;;;;24.10;12.82;;;1.90;99.90;;;;;;5049762;28;20049;-81
2021/01/07 01:36:42;;;;;;;18.63;9.40;;;1.90;99.90;;;;;;5049855;28;20049;-81
2021/01/07 01:39:08;;;;;;;20.60;12.45;;;1.90;99.90;;;;;;5049544;28;20119;-81
2021/01/07 01:41:44;;;;;;;23.38;12.40;;;1.90;99.90;;;;;;5051143;28;20068;-81
2021/01/07 01:44:11;;;;;;;20.52;11.00;;;1.90;99.90;;;;;;5050972;28;20116;-81
2021/01/07 01:46:37;;;;;;;21.48;12.25;;;1.90;99.90;;;;;;5049771;28;20090;-81
2021/01/07 01:49:03;;;;;;;20.92;11.57;;;1.90;99.90;;;;;;5049212;28;20044;-81
2021/01/07 01:51:33;;;;;;;26.20;12.75;;;1.90;99.90;;;;;;5049435;28;20478;-81
2021/01/07 01:53:59;;;;;;;24.77;12.73;;;1.90;99.90;;;;;;5050405;28;20509;-81
2021/01/07 01:56:25;;;;;;;23.25;12.70;;;1.90;99.90;;;;;;5044752;28;20021;-81
2021/01/07 01:58:51;;;;;;;24.40;13.57;;;1.90;99.90;;;;;;5049319;28;20039;-81
2021/01/07 02:01:18;;;;;;;32.40;13.98;;;1.90;99.90;;;;;;5050393;28;20027;-82
2021/01/07 02:03:44;;;;;;;28.80;14.20;;;1.90;99.90;;;;;;5049295;28;20043;-81
2021/01/07 02:06:14;;;;;;;25.08;12.82;;;1.90;99.90;;;;;;5049452;28;20029;-82
2021/01/07 02:08:47;;;;;;;22.58;12.25;;;1.90;99.90;;;;;;5050222;28;20036;-82
2021/01/07 02:11:15;;;;;;;23.77;13.05;;;1.90;99.90;;;;;;5048944;28;20039;-81
2021/01/07 02:13:44;;;;;;;22.98;11.68;;;1.90;99.90;;;;;;5049104;28;20063;-81
2021/01/07 02:16:10;;;;;;;23.13;13.05;;;1.90;99.90;;;;;;5049555;28;20473;-81
2021/01/07 02:18:35;;;;;;;24.77;12.13;;;1.90;99.90;;;;;;5050359;28;20025;-81
2021/01/07 02:21:02;;;;;;;20.58;11.82;;;1.90;99.90;;;;;;5048736;28;20036;-83
2021/01/07 02:23:27;;;;;;;50.65;13.63;;;1.90;99.90;;;;;;5049191;28;20079;-83
2021/01/07 02:25:54;;;;;;;21.13;10.90;;;1.90;99.90;;;;;;5049486;28;20041;-81
2021/01/07 02:28:20;;;;;;;28.25;11.68;;;1.90;99.90;;;;;;5050205;28;20109;-81
2021/01/07 02:30:46;;;;;;;21.05;12.20;;;2.00;99.90;;;;;;5048692;28;20071;-81
2021/01/07 02:33:13;;;;;;;24.15;11.10;;;1.90;99.90;;;;;;5049941;28;20037;-81
2021/01/07 02:35:38;;;;;;;20.05;10.43;;;2.00;99.90;;;;;;5048978;28;20025;-81
2021/01/07 02:38:04;;;;;;;23.67;11.55;;;2.00;99.90;;;;;;5048629;28;20040;-81
2021/01/07 02:40:30;;;;;;;24.98;12.98;;;2.00;99.90;;;;;;5049530;28;20025;-82
2021/01/07 02:42:56;;;;;;;24.10;13.02;;;1.90;99.90;;;;;;5049683;28;20025;-82
2021/01/07 02:45:21;;;;;;;25.67;14.40;;;2.00;99.90;;;;;;5048610;28;20370;-81
2021/01/07 02:47:47;;;;;;;25.00;13.88;;;1.90;99.90;;;;;;5065355;28;20047;-81
2021/01/07 02:50:13;;;;;;;25.05;14.05;;;2.00;99.90;;;;;;5069329;28;20051;-81
2021/01/07 02:52:38;;;;;;;27.33;14.18;;;2.00;99.90;;;;;;5069480;28;20036;-82
2021/01/07 02:55:05;;;;;;;37.17;16.63;;;2.00;99.90;;;;;;5069303;28;20070;-81
2021/01/07 02:57:31;;;;;;;27.08;14.35;;;1.90;99.90;;;;;;5052810;28;20495;-81
2021/01/07 02:59:56;;;;;;;30.95;16.88;;;2.00;99.90;;;;;;5052242;28;20032;-81
2021/01/07 03:02:22;;;;;;;29.58;15.95;;;1.90;99.90;;;;;;5051368;28;20579;-81
2021/01/07 03:04:48;;;;;;;30.15;16.13;;;1.90;99.90;;;;;;5051028;28;20327;-81
2021/01/07 03:07:13;;;;;;;32.53;16.60;;;1.90;99.90;;;;;;5057828;28;20020;-82
2021/01/07 03:09:39;;;;;;;37.42;17.73;;;1.90;99.90;;;;;;5077148;28;20019;-82
2021/01/07 03:12:15;;;;;;;32.22;16.33;;;1.90;99.90;;;;;;5093815;28;20646;-81
2021/01/07 03:14:42;;;;;;;31.27;16.67;;;1.90;99.90;;;;;;5076825;28;20080;-82
2021/01/07 03:17:08;;;;;;;35.92;17.40;;;1.90;99.90;;;;;;5078172;28;20009;-82
2021/01/07 03:19:33;;;;;;;31.55;17.45;;;1.90;99.90;;;;;;5077430;28;20075;-81
2021/01/07 03:21:59;;;;;;;32.95;17.02;;;1.90;99.90;;;;;;5081924;28;20032;-82
2021/01/07 03:24:24;;;;;;;34.95;17.70;;;1.90;99.90;;;;;;5052704;28;20020;-81
2021/01/07 03:26:50;;;;;;;30.90;16.52;;;1.80;99.90;;;;;;5052365;28;20093;-81
2021/01/07 03:29:16;;;;;;;37.28;16.23;;;1.80;99.90;;;;;;5051727;28;20110;-81
2021/01/07 03:31:42;;;;;;;34.53;18.00;;;1.90;99.90;;;;;;5051828;28;20062;-81
2021/01/07 03:34:07;;;;;;;34.25;17.48;;;1.80;99.90;;;;;;5051144;28;20020;-81
2021/01/07 03:36:33;;;;;;;30.67;15.18;;;1.80;99.90;;;;;;5051377;28;20029;-81
2021/01/07 03:38:58;;;;;;;32.75;15.65;;;1.80;99.90;;;;;;5051030;28;20550;-81
2021/01/07 03:41:24;;;;;;;34.50;17.58;;;1.80;99.90;;;;;;5051272;28;20035;-82
2021/01/07 03:43:49;;;;;;;32.15;15.93;;;1.80;99.90;;;;;;5050844;28;20040;-81
2021/01/07 03:46:15;;;;;;;33.63;16.23;;;1.90;99.90;;;;;;5055046;28;20043;-82
2021/01/07 03:48:41;;;;;;;35.15;15.82;;;1.80;99.90;;;;;;5050873;28;20021;-82
2021/01/07 03:51:06;;;;;;;32.17;16.40;;;1.80;99.90;;;;;;5069386;28;20038;-82
2021/01/07 03:53:32;;;;;;;32.20;16.02;;;1.80;99.90;;;;;;5068432;28;20052;-81
2021/01/07 03:55:57;;;;;;;34.15;16.38;;;1.80;99.90;;;;;;5050517;28;20029;-81
2021/01/07 03:58:23;;;;;;;33.55;15.38;;;1.80;99.90;;;;;;5050825;28;20025;-81
2021/01/07 04:00:48;;;;;;;30.60;15.07;;;1.80;99.90;;;;;;5050661;28;20029;-81
2021/01/07 04:03:14;;;;;;;32.72;16.08;;;1.80;99.90;;;;;;5050773;28;20079;-82
2021/01/07 04:05:39;;;;;;;30.58;15.07;;;1.80;99.90;;;;;;5050917;28;20032;-82
2021/01/07 04:08:05;;;;;;;26.38;14.18;;;1.70;99.90;;;;;;5050627;28;20029;-82
2021/01/07 04:10:31;;;;;;;27.42;13.27;;;1.70;99.90;;;;;;5050594;28;20086;-83
2021/01/07 04:12:56;;;;;;;31.98;15.20;;;1.60;99.90;;;;;;5050852;28;20055;-84
2021/01/07 04:15:22;;;;;;;29.55;14.18;;;1.70;99.90;;;;;;5051220;28;20013;-84
2021/01/07 04:17:47;;;;;;;29.48;14.50;;;1.70;99.90;;;;;;5051114;28;20024;-84
2021/01/07 04:20:13;;;;;;;27.23;13.98;;;1.70;99.90;;;;;;5050958;28;20465;-82
2021/01/07 04:22:40;;;;;;;27.15;14.07;;;1.70;99.90;;;;;;5050657;28;20055;-82
2021/01/07 04:25:06;;;;;;;29.23;13.95;;;1.70;99.90;;;;;;5068425;28;20012;-82
2021/01/07 04:27:32;;;;;;;28.92;13.52;;;1.80;99.90;;;;;;5068553;28;20047;-82
2021/01/07 04:29:57;;;;;;;27.10;14.00;;;1.80;99.90;;;;;;5066474;28;20020;-82
2021/01/07 04:32:23;;;;;;;30.67;14.20;;;1.80;99.90;;;;;;5053963;28;20028;-82
2021/01/07 04:34:48;;;;;;;33.30;13.75;;;1.80;99.90;;;;;;5052271;28;20146;-84
2021/01/07 04:37:14;;;;;;;24.20;13.20;;;1.80;99.90;;;;;;5054083;28;20024;-84
2021/01/07 04:39:39;;;;;;;32.83;12.90;;;1.80;99.90;;;;;;5054445;28;20025;-82
2021/01/07 04:42:05;;;;;;;24.83;12.30;;;1.80;99.90;;;;;;5053353;28;20125;-82
2021/01/07 04:44:31;;;;;;;27.85;13.40;;;1.80;99.90;;;;;;5053869;28;20070;-82
2021/01/07 04:46:59;;;;;;;24.35;12.40;;;1.70;99.90;;;;;;5053723;28;20102;-81
2021/01/07 04:49:25;;;;;;;24.95;11.98;;;1.70;99.90;;;;;;5053453;28;20424;-82
2021/01/07 04:51:51;;;;;;;26.83;11.95;;;1.60;99.90;;;;;;5071987;28;20401;-82
2021/01/07 04:54:19;;;;;;;23.90;11.40;;;1.60;99.90;;;;;;5053944;28;20180;-82
2021/01/07 04:56:45;;;;;;;23.80;11.93;;;1.60;99.90;;;;;;5056565;28;20115;-82
2021/01/07 04:59:11;;;;;;;29.75;13.45;;;1.70;99.90;;;;;;5061179;28;20048;-81
2021/01/07 05:01:37;;;;;;;29.48;13.05;;;1.60;99.90;;;;;;5087857;28;20024;-83
2021/01/07 05:04:04;;;;;;;25.63;12.65;;;1.60;99.90;;;;;;5071803;28;20032;-84
2021/01/07 05:06:30;;;;;;;24.23;11.52;;;1.60;99.90;;;;;;5069092;28;20114;-81
2021/01/07 05:09:05;;;;;;;26.50;12.35;;;1.70;99.90;;;;;;5055052;28;20029;-82
2021/01/07 05:11:32;;;;;;;29.17;12.45;;;1.70;99.90;;;;;;5053903;28;20115;-81
2021/01/07 05:14:09;;;;;;;28.27;13.13;;;1.70;99.90;;;;;;5062468;28;20028;-81
2021/01/07 05:16:35;;;;;;;28.38;12.80;;;1.60;99.90;;;;;;5060477;28;20390;-81
2021/01/07 05:19:06;;;;;;;27.65;12.25;;;1.60;99.90;;;;;;5057570;28;20027;-81
2021/01/07 05:21:32;;;;;;;28.63;13.25;;;1.60;99.90;;;;;;5054778;28;20429;-82
2021/01/07 05:23:58;;;;;;;25.55;11.93;;;1.60;99.90;;;;;;5053218;28;20059;-82
2021/01/07 05:26:25;;;;;;;26.58;12.18;;;1.60;99.90;;;;;;5053321;28;20052;-81
2021/01/07 05:28:53;;;;;;;25.80;12.40;;;1.60;99.90;;;;;;5071030;28;20029;-81
2021/01/07 05:31:23;;;;;;;28.73;11.88;;;1.70;99.90;;;;;;5053722;28;20466;-82
2021/01/07 05:33:51;;;;;;;29.65;13.15;;;1.70;99.90;;;;;;5076273;28;20052;-82
2021/01/07 05:36:24;;;;;;;21.90;11.48;;;1.70;99.90;;;;;;5052094;28;20108;-80
2021/01/07 05:38:52;;;;;;;22.30;11.00;;;1.70;99.90;;;;;;5045888;28;20029;-81
2021/01/07 05:41:20;;;;;;;25.52;12.85;;;1.80;99.90;;;;;;5052179;28;20100;-80
2021/01/07 05:43:57;;;;;;;22.80;12.18;;;1.70;99.90;;;;;;5067719;28;20028;-81
2021/01/07 05:46:24;;;;;;;31.92;12.43;;;1.80;99.90;;;;;;5052091;28;20520;-80
2021/01/07 05:48:54;;;;;;;28.38;12.00;;;1.70;99.90;;;;;;5051776;28;20389;-81
2021/01/07 05:51:24;;;;;;;20.73;11.18;;;1.70;99.90;;;;;;5050420;28;20028;-81
2021/01/07 05:53:55;;;;;;;27.65;12.30;;;1.70;99.90;;;;;;5051659;28;20428;-81
2021/01/07 05:56:21;;;;;;;;;;;1.70;99.90;;;;;;5049310;28;20019;-81
2021/01/07 05:58:48;;;;;;;32.03;12.43;;;1.70;99.90;;;;;;5067895;28;19909;-81
2021/01/07 06:01:24;;;;;;;25.48;11.98;;;1.70;99.90;;;;;;5072192;28;20484;-82
2021/01/07 06:03:53;;;;;;;36.08;12.68;;;1.80;99.90;;;;;;5050776;28;20032;-82
2021/01/07 06:06:21;;;;;;;26.33;13.43;;;1.80;99.90;;;;;;5054495;28;20098;-82
2021/01/07 06:08:52;;;;;;;27.63;12.02;;;1.70;99.90;;;;;;5056444;28;20035;-82
2021/01/07 06:11:20;;;;;;;26.52;11.65;;;1.70;99.90;;;;;;5053452;28;20119;-81
2021/01/07 06:13:48;;;;;;;23.05;12.02;;;1.80;99.90;;;;;;5051695;28;20511;-81
2021/01/07 06:16:15;;;;;;;23.70;11.00;;;1.70;99.90;;;;;;5055440;28;20020;-81
2021/01/07 06:18:41;;;;;;;25.60;11.60;;;1.70;99.90;;;;;;5050131;28;20028;-81
2021/01/07 06:21:08;;;;;;;24.00;12.00;;;1.70;99.90;;;;;;5051680;28;20021;-81
2021/01/07 06:23:40;;;;;;;25.65;12.07;;;1.70;99.90;;;;;;5050544;28;20035;-81
2021/01/07 06:26:18;;;;;;;24.55;11.27;;;1.70;99.90;;;;;;5051419;28;20042;-83
2021/01/07 06:28:51;;;;;;;27.83;11.55;;;1.70;99.90;;;;;;5068792;28;20029;-82
2021/01/07 06:31:17;;;;;;;23.17;10.73;;;1.70;99.90;;;;;;5027671;28;20037;-83
2021/01/07 06:33:43;;;;;;;23.58;11.85;;;1.70;99.90;;;;;;5050414;28;20029;-83
2021/01/07 06:36:10;;;;;;;21.40;11.43;;;1.70;99.90;;;;;;5052503;28;20385;-81
2021/01/07 06:38:35;;;;;;;23.33;11.13;;;1.70;99.90;;;;;;5048713;28;20110;-82
2021/01/07 06:41:01;;;;;;;27.00;11.60;;;1.70;99.90;;;;;;5050326;28;20012;-82
2021/01/07 06:43:29;;;;;;;18.27;10.35;;;1.70;99.90;;;;;;5052510;28;20028;-81
2021/01/07 06:45:56;;;;;;;29.27;11.07;;;1.70;99.90;;;;;;5067304;28;20467;-81
2021/01/07 06:48:30;;;;;;;23.40;11.38;;;1.70;99.90;;;;;;5032582;28;20090;-82
2021/01/07 06:50:56;;;;;;;22.38;12.43;;;1.70;99.90;;;;;;5049272;28;20082;-81
2021/01/07 06:53:22;;;;;;;20.20;10.00;;;1.80;99.90;;;;;;5052424;28;20400;-81
2021/01/07 06:56:10;;;;;;;22.73;11.25;;;1.80;99.90;;;;;;5050884;28;20043;-82
2021/01/07 06:58:44;;;;;;;18.35;10.18;;;1.80;99.90;;;;;;5050072;28;20047;-81
2021/01/07 07:01:15;;;;;;;19.73;10.30;;;1.70;99.90;;;;;;5050885;28;20087;-81
2021/01/07 07:03:49;;;;;;;31.38;11.70;;;1.70;99.90;;;;;;5050881;28;20020;-81
2021/01/07 07:06:17;;;;;;;22.05;10.30;;;1.70;99.90;;;;;;5049207;28;20461;-81
2021/01/07 07:08:45;;;;;;;23.48;10.65;;;1.80;99.90;;;;;;5051615;28;20087;-81
2021/01/07 07:11:12;;;;;;;24.10;12.02;;;1.80;99.90;;;;;;5051300;28;20082;-83
2021/01/07 07:13:44;;;;;;;20.50;10.10;;;1.80;99.90;;;;;;5052777;28;20087;-83
2021/01/07 07:16:14;;;;;;;28.42;10.90;;;1.80;99.90;;;;;;5051123;28;20021;-80
2021/01/07 07:18:40;;;;;;;19.05;10.60;;;1.90;99.90;;;;;;5048796;28;20037;-81
2021/01/07 07:21:24;;;;;;;23.65;11.27;;;1.80;99.90;;;;;;5066278;28;20036;-80
2021/01/07 07:23:53;;;;;;;22.83;11.75;;;1.70;99.90;;;;;;5050893;28;20089;-81
2021/01/07 07:26:32;;;;;;;22.63;10.90;;;1.80;99.90;;;;;;5052957;28;20372;-81
2021/01/07 07:29:03;;;;;;;24.48;10.57;;;1.80;99.90;;;;;;5045761;28;20047;-81
2021/01/07 07:31:55;;;;;;;18.45;9.85;;;1.80;99.90;;;;;;5048424;28;20032;-81
2021/01/07 07:34:30;;;;;;;22.13;10.15;;;1.70;99.90;;;;;;4973984;28;20054;-81
2021/01/07 07:37:00;;;;;;;17.02;9.25;;;1.70;99.90;;;;;;4957245;28;20041;-81
2021/01/07 07:39:27;;;;;;;19.57;10.80;;;1.70;99.90;;;;;;4973726;28;20034;-82
2021/01/07 07:42:24;;;;;;;22.67;12.02;;;1.70;99.90;;;;;;4974745;28;20328;-82
2021/01/07 07:44:50;;;;;;;21.08;10.57;;;1.70;99.90;;;;;;4955137;28;20073;-81
2021/01/07 07:47:19;;;;;;;21.73;11.13;;;1.60;99.90;;;;;;4969675;28;20047;-81
2021/01/07 07:49:54;;;;;;;22.55;11.50;;;1.60;99.90;;;;;;4973519;28;20093;-83
2021/01/07 07:52:20;;;;;;;23.83;11.45;;;1.50;99.90;;;;;;5001816;28;20053;-85
2021/01/07 07:54:58;;;;;;;26.90;11.45;;;1.60;99.90;;;;;;5011583;28;20100;-83
2021/01/07 07:57:24;;;;;;;25.25;11.60;;;1.60;99.90;;;;;;4995307;28;20051;-85
2021/01/07 07:59:51;;;;;;;23.05;10.25;;;1.60;99.90;;;;;;5011081;28;20030;-82
2021/01/07 08:02:17;;;;;;;21.95;10.75;;;1.60;99.90;;;;;;4998955;28;20027;-80
2021/01/07 08:04:43;;;;;;;24.85;11.90;;;1.60;99.90;;;;;;5002399;28;20041;-81
2021/01/07 08:07:09;;;;;;;27.35;12.00;;;1.70;99.90;;;;;;4996963;28;20023;-82
2021/01/07 08:09:35;;;;;;;25.77;12.05;;;1.70;99.90;;;;;;4994601;28;20019;-82
2021/01/07 08:12:01;;;;;;;25.23;12.45;;;1.80;99.90;;;;;;5060048;28;20095;-82
2021/01/07 08:14:30;;;;;;;27.00;10.77;;;1.70;99.90;;;;;;5038525;28;20132;-82
2021/01/07 08:16:57;;;;;;;18.63;10.10;;;1.70;99.90;;;;;;5024958;28;21527;-83
2021/01/07 08:19:32;;;;;;;23.40;11.57;;;1.70;99.90;;;;;;5025672;28;20029;-83
2021/01/07 08:21:58;;;;;;;25.98;11.32;;;1.60;99.90;;;;;;5043145;28;20063;-83
2021/01/07 08:24:24;;;;;;;25.52;11.85;;;1.70;99.90;;;;;;5050895;28;20025;-83
2021/01/07 08:27:16;;;;;;;26.67;12.40;;;1.70;99.90;;;;;;5050773;28;20033;-84
2021/01/07 08:29:44;;;;;;;23.92;9.73;;;1.70;99.90;;;;;;5048968;28;20029;-82
2021/01/07 08:32:15;;;;;;;22.60;10.60;;;1.70;99.90;;;;;;5051719;28;20095;-81
2021/01/07 08:34:41;;;;;;;25.25;11.27;;;1.60;99.90;;;;;;5068143;28;20036;-83
2021/01/07 08:37:09;;;;;;;19.52;10.18;;;1.70;99.90;;;;;;5028902;28;20029;-84
2021/01/07 08:39:39;;;;;;;22.05;10.93;;;1.70;99.90;;;;;;4996913;28;20039;-82
2021/01/07 08:42:05;;;;;;;23.88;10.98;;;1.70;99.90;;;;;;4998412;28;20042;-83
2021/01/07 08:44:31;;;;;;;21.30;10.45;;;1.70;99.90;;;;;;4983123;28;20049;-83
2021/01/07 08:46:57;;;;;;;23.38;11.23;;;1.60;99.90;;;;;;4996683;28;20054;-83
2021/01/07 08:49:22;;;;;;;25.70;10.50;;;1.60;99.90;;;;;;4977734;28;20049;-83
2021/01/07 08:51:50;;;;;;;25.02;9.38;;;1.60;99.90;;;;;;4996969;28;20038;-82
2021/01/07 08:54:20;;;;;;;20.67;9.85;;;1.70;99.90;;;;;;4982742;28;20095;-83
2021/01/07 08:56:56;;;;;;;23.07;10.43;;;1.60;99.90;;;;;;4978061;28;20034;-83
2021/01/07 08:59:31;;;;;;;23.00;10.57;;;1.60;99.90;;;;;;4985305;28;20054;-83
2021/01/07 09:02:04;;;;;;;20.73;9.93;;;1.50;99.90;;;;;;4986521;28;20084;-83
2021/01/07 09:04:40;;;;;;;19.00;9.55;;;1.60;99.90;;;;;;4980027;28;20038;-82
2021/01/07 09:07:09;;;;;;;22.85;10.50;;;1.60;99.90;;;;;;4981613;28;20027;-82
2021/01/07 09:09:56;;;;;;;20.58;9.60;;;1.80;99.90;;;;;;5024150;28;20037;-82
2021/01/07 09:12:32;;;;;;;18.92;9.63;;;1.60;99.90;;;;;;5045899;28;20036;-83
2021/01/07 09:15:13;;;;;;;27.30;13.52;;;1.70;99.90;;;;;;5065589;28;20048;-80
2021/01/07 09:17:49;;;;;;;25.38;11.30;;;1.70;99.90;;;;;;5044644;28;20044;-80
2021/01/07 09:20:36;;;;;;;19.45;9.85;;;1.70;99.90;;;;;;5046811;28;20033;-83
2021/01/07 09:23:05;;;;;;;16.83;8.90;;;1.70;99.90;;;;;;5063137;28;20036;-84
2021/01/07 09:25:32;;;;;;;17.00;8.85;;;1.70;99.90;;;;;;5048775;28;20063;-82
2021/01/07 09:27:59;;;;;;;28.35;11.00;;;1.70;99.90;;;;;;5089734;28;20027;-82
2021/01/07 09:30:25;;;;;;;18.58;8.40;;;1.70;99.90;;;;;;5078273;28;20013;-81
2021/01/07 09:32:51;;;;;;;16.17;7.60;;;1.80;99.90;;;;;;5084960;28;20032;-82
2021/01/07 09:35:17;;;;;;;16.38;8.93;;;1.70;99.90;;;;;;5083132;28;20064;-81
2021/01/07 09:37:43;;;;;;;17.90;8.50;;;1.70;99.90;;;;;;5077344;28;20097;-81
2021/01/07 09:40:09;;;;;;;15.57;8.10;;;1.70;99.90;;;;;;5075182;28;20057;-82
2021/01/07 09:42:35;;;;;;;27.30;8.48;;;1.80;99.90;;;;;;5068125;28;20017;-82
2021/01/07 09:45:03;;;;;;;21.50;10.65;;;1.80;99.90;;;;;;5092619;28;20031;-82
2021/01/07 09:47:29;;;;;;;16.30;8.38;;;1.70;99.90;;;;;;5073369;28;20072;-81
2021/01/07 09:49:56;;;;;;;15.20;7.82;;;1.80;99.90;;;;;;5071897;28;20036;-81
2021/01/07 09:52:22;;;;;;;13.77;7.60;;;1.80;99.90;;;;;;5067461;28;20100;-80
2021/01/07 09:54:48;;;;;;;12.38;7.35;;;1.80;99.90;;;;;;5052764;28;20055;-81
2021/01/07 09:57:14;;;;;;;12.13;6.88;;;1.80;99.90;;;;;;5049448;28;20103;-81
2021/01/07 09:59:40;;;;;;;17.08;8.23;;;1.90;99.90;;;;;;5046452;28;20025;-81
2021/01/07 10:02:12;;;;;;;16.65;7.78;;;1.90;99.90;;;;;;5047410;28;20029;-82
2021/01/07 10:04:47;;;;;;;16.85;8.07;;;1.90;99.90;;;;;;5047027;28;20040;-82
2021/01/07 10:07:13;;;;;;;20.10;7.25;;;1.80;99.90;;;;;;5059974;28;20032;-82
2021/01/07 10:09:40;;;;;;;12.40;6.68;;;1.80;99.90;;;;;;5028878;28;20044;-82
2021/01/07 10:12:06;;;;;;;14.50;7.22;;;1.90;99.90;;;;;;5029892;28;20197;-83
2021/01/07 10:14:33;;;;;;;14.68;6.32;;;1.80;99.90;;;;;;5043814;28;20047;-81
2021/01/07 10:17:01;;;;;;;17.10;7.75;;;1.90;99.90;;;;;;5068679;28;20028;-81
2021/01/07 10:19:29;;;;;;;19.10;7.18;;;2.00;99.90;;;;;;5042700;28;20051;-83
2021/01/07 10:22:00;;;;;;;12.05;6.47;;;2.00;99.90;;;;;;5044582;28;20814;-81
2021/01/07 10:24:26;;;;;;;13.23;7.65;;;2.00;99.90;;;;;;5046887;28;20519;-81
2021/01/07 10:26:57;;;;;;;12.13;6.30;;;2.00;99.90;;;;;;5017283;28;20026;-81
2021/01/07 10:29:23;;;;;;;13.55;7.78;;;2.00;99.90;;;;;;5018047;28;20041;-82
2021/01/07 10:31:49;;;;;;;12.32;6.35;;;2.00;99.90;;;;;;4999407;28;20033;-81
2021/01/07 10:34:15;;;;;;;13.88;6.78;;;2.00;99.90;;;;;;5015553;28;20040;-82
2021/01/07 10:36:41;;;;;;;13.50;6.30;;;2.00;99.90;;;;;;5001724;28;20162;-82
2021/01/07 10:39:10;;;;;;;13.75;6.80;;;2.00;99.90;;;;;;5016591;28;20063;-81
2021/01/07 10:41:42;;;;;;;14.93;6.88;;;2.00;99.90;;;;;;5007031;28;20042;-82
2021/01/07 10:44:08;;;;;;;14.65;6.95;;;2.00;99.90;;;;;;5002394;28;20049;-81
2021/01/07 10:46:37;;;;;;;14.73;6.38;;;2.00;99.90;;;;;;5004859;28;20213;-82
2021/01/07 10:49:03;;;;;;;13.38;6.93;;;2.10;99.90;;;;;;5018482;28;20573;-82
2021/01/07 10:51:40;;;;;;;10.43;5.93;;;2.00;99.90;;;;;;5004303;28;20168;-82
2021/01/07 10:54:25;;;;;;;16.45;6.70;;;2.10;99.90;;;;;;5021513;28;21518;-82
2021/01/07 10:57:08;;;;;;;12.73;5.30;;;2.20;99.90;;;;;;5023148;28;20050;-81
2021/01/07 11:00:01;;;;;;;11.93;5.45;;;2.10;99.90;;;;;;5046276;28;20465;-82
2021/01/07 11:02:57;;;;;;;10.70;5.93;;;2.10;99.90;;;;;;5043777;28;20082;-81
2021/01/07 11:05:31;;;;;;;9.65;5.30;;;2.10;99.90;;;;;;5068070;28;20111;-83
2021/01/07 11:08:07;;;;;;;12.00;6.20;;;2.20;99.90;;;;;;5067677;28;20056;-82
2021/01/07 11:10:35;;;;;;;10.77;5.70;;;2.20;99.90;;;;;;5044758;28;20032;-82
2021/01/07 11:13:11;;;;;;;10.65;5.68;;;2.20;99.90;;;;;;5045787;28;20033;-81
2021/01/07 11:15:40;;;;;;;13.60;5.15;;;2.30;99.90;;;;;;5013925;28;20109;-82
2021/01/07 11:18:13;;;;;;;9.15;4.97;;;2.40;99.90;;;;;;5048867;28;20036;-81
2021/01/07 11:20:43;;;;;;;14.30;5.35;;;2.40;99.90;;;;;;5042102;28;20037;-82
2021/01/07 11:23:09;;;;;;;15.98;5.47;;;2.30;99.90;;;;;;5003627;28;20044;-82
2021/01/07 11:25:35;;;;;;;12.85;5.65;;;2.40;99.90;;;;;;5040173;28;20041;-82
2021/01/07 11:28:02;;;;;;;10.15;5.78;;;2.40;99.90;;;;;;5019600;28;20112;-82
2021/01/07 11:30:28;;;;;;;15.70;6.07;;;2.20;99.90;;;;;;5037381;28;20048;-82
2021/01/07 11:32:55;;;;;;;9.63;4.40;;;2.20;99.90;;;;;;5021617;28;20084;-81
2021/01/07 11:35:21;;;;;;;9.15;4.85;;;2.30;99.90;;;;;;5021236;28;20533;-82
2021/01/07 11:37:57;;;;;;;11.82;5.22;;;2.40;99.90;;;;;;5036368;28;20516;-82
2021/01/07 11:40:48;;;;;;;11.40;5.80;;;2.50;99.90;;;;;;5034391;28;20033;-80
2021/01/07 11:43:24;;;;;;;11.32;5.80;;;2.50;99.90;;;;;;5018377;28;20025;-81
2021/01/07 11:45:59;;;;;;;22.42;8.57;;;2.40;99.90;;;;;;5040934;28;20033;-81
2021/01/07 11:48:30;;;;;;;12.43;6.70;;;2.40;99.90;;;;;;5023185;28;20493;-81
2021/01/07 11:51:06;;;;;;;13.77;6.30;;;2.40;99.90;;;;;;5026954;28;20067;-81
2021/01/07 11:53:33;;;;;;;11.10;6.18;;;2.40;99.90;;;;;;5046563;28;20048;-81
2021/01/07 11:56:00;;;;;;;10.30;5.85;;;2.40;99.90;;;;;;5045553;28;20033;-81
2021/01/07 11:58:27;;;;;;;11.73;5.70;;;2.30;99.90;;;;;;5050762;28;20431;-81
2021/01/07 12:00:54;;;;;;;21.60;7.13;;;2.40;99.90;;;;;;5046396;28;20062;-82
2021/01/07 12:03:25;;;;;;;14.48;6.10;;;2.40;99.90;;;;;;5045654;28;20386;-82
2021/01/07 12:05:51;;;;;;;10.50;5.07;;;2.30;99.90;;;;;;5048610;28;20495;-82
2021/01/07 12:08:45;;;;;;;11.38;5.70;;;2.30;99.90;;;;;;5049904;28;20082;-82
2021/01/07 12:11:28;;;;;;;10.25;5.43;;;2.30;99.90;;;;;;5047285;28;20103;-82
2021/01/07 12:14:16;;;;;;;12.65;5.53;;;2.30;99.90;;;;;;5047954;28;20045;-82
2021/01/07 12:17:00;;;;;;;10.20;5.50;;;2.40;99.90;;;;;;5062792;28;20025;-81
2021/01/07 12:19:27;;;;;;;10.38;5.80;;;2.50;99.90;;;;;;5049879;28;20039;-81
2021/01/07 12:21:54;;;;;;;12.85;5.82;;;2.40;99.90;;;;;;5048494;28;20031;-83
2021/01/07 12:24:21;;;;;;;20.05;7.90;;;2.40;99.90;;;;;;5019280;28;20490;-82
2021/01/07 12:26:49;;;;;;;12.02;6.43;;;2.40;99.90;;;;;;4997593;28;20096;-82
2021/01/07 12:29:22;;;;;;;11.25;5.65;;;2.50;99.90;;;;;;5003108;28;20041;-83
2021/01/07 12:31:54;;;;;;;15.32;6.10;;;2.40;99.90;;;;;;4997499;28;21763;-81
2021/01/07 12:34:39;;;;;;;10.43;5.60;;;2.40;99.90;;;;;;5004718;28;21529;-82
2021/01/07 12:37:08;;;;;;;11.02;6.57;;;2.50;99.90;;;;;;5003621;28;20045;-81
2021/01/07 12:39:49;;;;;;;21.05;7.13;;;2.50;99.90;;;;;;5017042;28;20037;-81
2021/01/07 12:42:24;;;;;;;11.90;6.95;;;2.60;99.90;;;;;;4998756;28;20060;-82
2021/01/07 12:44:52;;;;;;;11.80;6.85;;;2.60;99.90;;;;;;5005834;28;20129;-82
2021/01/07 12:47:18;;;;;;;11.55;6.63;;;2.70;99.90;;;;;;5005080;28;20464;-82
2021/01/07 12:49:45;;;;;;;14.35;6.82;;;2.70;99.90;;;;;;4988790;28;20041;-82